地図

経路データ

SID SEASON NUMBER BASIN SUBBASIN NAME ISO_TIME NATURE LAT LON WMO_WIND WMO_PRES WMO_AGENCY TRACK_TYPE DIST2LAND LANDFALL IFLAG USA_AGENCY USA_ATCF_ID USA_LAT USA_LON USA_RECORD USA_STATUS USA_WIND USA_PRES USA_SSHS USA_R34_NE USA_R34_SE USA_R34_SW USA_R34_NW USA_R50_NE USA_R50_SE USA_R50_SW USA_R50_NW USA_R64_NE USA_R64_SE USA_R64_SW USA_R64_NW USA_POCI USA_ROCI USA_RMW USA_EYE TOKYO_LAT TOKYO_LON TOKYO_GRADE TOKYO_WIND TOKYO_PRES TOKYO_R50_DIR TOKYO_R50_LONG TOKYO_R50_SHORT TOKYO_R30_DIR TOKYO_R30_LONG TOKYO_R30_SHORT TOKYO_LAND CMA_LAT CMA_LON CMA_CAT CMA_WIND CMA_PRES HKO_LAT HKO_LON HKO_CAT HKO_WIND HKO_PRES NEWDELHI_LAT NEWDELHI_LON NEWDELHI_GRADE NEWDELHI_WIND NEWDELHI_PRES NEWDELHI_CI NEWDELHI_DP NEWDELHI_POCI REUNION_LAT REUNION_LON REUNION_TYPE REUNION_WIND REUNION_PRES REUNION_TNUM REUNION_CI REUNION_RMW REUNION_R34_NE REUNION_R34_SE REUNION_R34_SW REUNION_R34_NW REUNION_R50_NE REUNION_R50_SE REUNION_R50_SW REUNION_R50_NW REUNION_R64_NE REUNION_R64_SE REUNION_R64_SW REUNION_R64_NW BOM_LAT BOM_LON BOM_TYPE BOM_WIND BOM_PRES BOM_TNUM BOM_CI BOM_RMW BOM_R34_NE BOM_R34_SE BOM_R34_SW BOM_R34_NW BOM_R50_NE BOM_R50_SE BOM_R50_SW BOM_R50_NW BOM_R64_NE BOM_R64_SE BOM_R64_SW BOM_R64_NW BOM_ROCI BOM_POCI BOM_EYE BOM_POS_METHOD BOM_PRES_METHOD NADI_LAT NADI_LON NADI_CAT NADI_WIND NADI_PRES WELLINGTON_LAT WELLINGTON_LON WELLINGTON_WIND WELLINGTON_PRES DS824_LAT DS824_LON DS824_STAGE DS824_WIND DS824_PRES TD9636_LAT TD9636_LON TD9636_STAGE TD9636_WIND TD9636_PRES TD9635_LAT TD9635_LON TD9635_WIND TD9635_PRES TD9635_ROCI NEUMANN_LAT NEUMANN_LON NEUMANN_CLASS NEUMANN_WIND NEUMANN_PRES MLC_LAT MLC_LON MLC_CLASS MLC_WIND MLC_PRES USA_GUST BOM_GUST BOM_GUST_PER REUNION_GUST REUNION_GUST_PER USA_SEAHGT USA_SEARAD_NE USA_SEARAD_SE USA_SEARAD_SW USA_SEARAD_NW STORM_SPEED STORM_DIR
1999003N05114 1999 1 WP MM NOT_NAMED 1999-01-03 00:00:00 TS 4.90000 113.900 main 35 35 O_____________ jtwc_wp WP011999 4.90000 113.900 TD 20 -1 4 268
1999003N05114 1999 1 WP MM NOT_NAMED 1999-01-03 03:00:00 TS 4.89251 113.695 main 47 47 P_____________ WP011999 4.89251 113.695 TD 20 -1 4 270
1999003N05114 1999 1 WP MM NOT_NAMED 1999-01-03 06:00:00 TS 4.90000 113.500 main 64 64 O_____________ jtwc_wp WP011999 4.90000 113.500 TD 20 -1 4 277
1999003N05114 1999 1 WP MM NOT_NAMED 1999-01-03 09:00:00 TS 4.93500 113.328 main 84 84 P_____________ WP011999 4.93500 113.328 TD 20 -1 3 289
1999003N05114 1999 1 WP MM NOT_NAMED 1999-01-03 12:00:00 TS 5.00000 113.200 main 99 99 O_____________ jtwc_wp WP011999 5.00000 113.200 TD 20 -1 3 308
1999003N05114 1999 1 WP MM NOT_NAMED 1999-01-03 15:00:00 TS 5.09249 113.128 main 114 114 P_____________ WP011999 5.09249 113.128 TD 20 -1 2 333
1999003N05114 1999 1 WP MM NOT_NAMED 1999-01-03 18:00:00 TS 5.20000 113.100 main 120 120 O_____________ jtwc_wp WP011999 5.20000 113.100 TD 20 -1 2 347
1999003N05114 1999 1 WP MM NOT_NAMED 1999-01-03 21:00:00 TS 5.28500 113.085 main 126 126 P_____________ WP011999 5.28500 113.085 TD 22 -1 2 8
1999003N05114 1999 1 WP MM NOT_NAMED 1999-01-04 00:00:00 TS 5.40000 113.100 main 134 134 O_____________ jtwc_wp WP011999 5.40000 113.100 TD 25 -1 3 12
1999003N05114 1999 1 WP MM NOT_NAMED 1999-01-04 03:00:00 TS 5.58500 113.150 main 142 142 P_____________ WP011999 5.58500 113.150 TD 25 -1 4 13
1999003N05114 1999 1 WP MM NOT_NAMED 1999-01-04 06:00:00 TS 5.80000 113.200 main 161 161 O_____________ jtwc_wp WP011999 5.80000 113.200 TD 25 -1 4 8
1999003N05114 1999 1 WP MM NOT_NAMED 1999-01-04 09:00:00 TS 6.00000 113.208 main 180 180 P_____________ WP011999 6.00000 113.208 TD 25 -1 4 0
1999003N05114 1999 1 WP MM NOT_NAMED 1999-01-04 12:00:00 TS 6.20000 113.200 main 200 200 O_____________ jtwc_wp WP011999 6.20000 113.200 TD 25 -1 4 355
1999003N05114 1999 1 WP MM NOT_NAMED 1999-01-04 15:00:00 TS 6.40749 113.178 main 220 220 P_____________ WP011999 6.40749 113.178 TD 25 -1 4 0
1999003N05114 1999 1 WP MM NOT_NAMED 1999-01-04 18:00:00 TS 6.60000 113.200 main 240 240 O_____________ jtwc_wp WP011999 6.60000 113.200 TD 25 -1 4 22
1999003N05114 1999 1 WP MM NOT_NAMED 1999-01-04 21:00:00 TS 6.76500 113.320 main 258 255 P_____________ WP011999 6.76500 113.320 TD 25 -1 4 45
1999003N05114 1999 1 WP MM NOT_NAMED 1999-01-05 00:00:00 TS 6.90000 113.500 main 263 259 O_____________ jtwc_wp WP011999 6.90000 113.500 TD 25 -1 5 55
1999003N05114 1999 1 WP MM NOT_NAMED 1999-01-05 03:00:00 TS 7.02250 113.692 main 259 251 P_____________ WP011999 7.02250 113.692 TD 25 -1 4 63
1999003N05114 1999 1 WP MM NOT_NAMED 1999-01-05 06:00:00 TS 7.10000 113.900 main 251 236 O_____________ jtwc_wp WP011999 7.10000 113.900 TD 25 -1 4 80
1999003N05114 1999 1 WP MM NOT_NAMED 1999-01-05 09:00:00 TS 7.10001 114.123 main 236 223 P_____________ WP011999 7.10001 114.123 TD 25 -1 4 90
1999003N05114 1999 1 WP MM NOT_NAMED 1999-01-05 12:00:00 TS 7.10000 114.300 main 223 215 O_____________ jtwc_wp WP011999 7.10000 114.300 TD 25 -1 3 72
1999003N05114 1999 1 WP MM NOT_NAMED 1999-01-05 15:00:00 TS 7.18499 114.380 main 222 222 P_____________ WP011999 7.18499 114.380 TD 27 -1 2 27
1999003N05114 1999 1 WP MM NOT_NAMED 1999-01-05 18:00:00 TS 7.30000 114.400 main 229 229 O_____________ jtwc_wp WP011999 7.30000 114.400 TD 30 -1 2 4
1999003N05114 1999 1 WP MM NOT_NAMED 1999-01-05 21:00:00 TS 7.37000 114.408 main 236 236 P_____________ WP011999 7.37000 114.408 TD 30 -1 2 8
1999003N05114 1999 1 WP MM NOT_NAMED 1999-01-06 00:00:00 TS 7.50000 114.400 main 243 243 O_____________ jtwc_wp WP011999 7.50000 114.400 TD 30 -1 4 0
1999003N05114 1999 1 WP MM NOT_NAMED 1999-01-06 03:00:00 TS 7.77000 114.407 main 267 267 P_____________ WP011999 7.77000 114.407 TD 30 -1 6 1
1999003N05114 1999 1 WP MM NOT_NAMED 1999-01-06 06:00:00 TS 8.10000 114.400 main 287 287 O_____________ jtwc_wp WP011999 8.10000 114.400 TD 30 -1 6 354
1999003N05114 1999 1 WP MM NOT_NAMED 1999-01-06 09:00:00 TS 8.40000 114.358 main 304 304 P_____________ WP011999 8.40000 114.358 TD 30 -1 6 351
1999003N05114 1999 1 WP MM NOT_NAMED 1999-01-06 12:00:00 TS 8.70000 114.300 main 322 322 O_____________ jtwc_wp WP011999 8.70000 114.300 TD 30 -1 6 350
1999003N05114 1999 1 WP MM NOT_NAMED 1999-01-06 15:00:00 TS 9.00750 114.250 main 328 328 P_____________ WP011999 9.00750 114.250 TD 32 -1 6 351
1999003N05114 1999 1 WP MM NOT_NAMED 1999-01-06 18:00:00 TS 9.30000 114.200 main 348 348 O_____________ jtwc_wp WP011999 9.30000 114.200 TS 35 0 6 351
1999003N05114 1999 1 WP MM NOT_NAMED 1999-01-06 21:00:00 TS 9.55749 114.157 main 358 358 P_____________ WP011999 9.55749 114.157 TS 35 0 5 349
1999003N05114 1999 1 WP MM NOT_NAMED 1999-01-07 00:00:00 TS 9.80000 114.100 main 376 376 O_____________ jtwc_wp WP011999 9.80000 114.100 TS 35 0 5 343
1999003N05114 1999 1 WP MM NOT_NAMED 1999-01-07 03:00:00 TS 10.0425 114.000 main 394 394 P_____________ WP011999 10.0425 114.000 TS 32 -1 5 338
1999003N05114 1999 1 WP MM NOT_NAMED 1999-01-07 06:00:00 TS 10.3000 113.900 main 419 419 O_____________ jtwc_wp WP011999 10.3000 113.900 TD 30 -1 6 344
1999003N05114 1999 1 WP MM NOT_NAMED 1999-01-07 09:00:00 TS 10.5900 113.838 main 444 444 P_____________ WP011999 10.5900 113.838 TD 30 -1 6 351
1999003N05114 1999 1 WP MM NOT_NAMED 1999-01-07 12:00:00 TS 10.9000 113.800 main 462 O_____________ jtwc_wp WP011999 10.9000 113.800 TD 30 -1 6 354

デジタル台風データ・検索

IBTrACS Databaseについて

本データベースは、米国NOAAが公開する1842年以降の世界の熱帯低気圧のベストトラックデータアーカイブInternational Best Track Archive for Climate Stewardship (IBTrACS)を、ウェブで閲覧しやすい形式に変換したものです。

最終更新日:2021-10-21